sensor_id;sensor_type;location;lat;lon;timestamp;P1;durP1;ratioP1;P2;durP2;ratioP2
46745;SDS011;32493;50.514;9.678;2022-12-29T00:01:11;5.25;;;1.80;;
46745;SDS011;32493;50.514;9.678;2022-12-29T00:03:16;3.13;;;1.52;;
46745;SDS011;32493;50.514;9.678;2022-12-29T00:05:21;3.03;;;1.67;;
46745;SDS011;32493;50.514;9.678;2022-12-29T00:07:30;4.03;;;1.77;;
46745;SDS011;32493;50.514;9.678;2022-12-29T00:09:35;3.30;;;1.90;;
46745;SDS011;32493;50.514;9.678;2022-12-29T00:11:41;3.78;;;2.00;;
46745;SDS011;32493;50.514;9.678;2022-12-29T00:13:46;4.63;;;1.88;;
46745;SDS011;32493;50.514;9.678;2022-12-29T00:16:06;3.58;;;1.90;;
46745;SDS011;32493;50.514;9.678;2022-12-29T00:18:09;5.70;;;1.60;;
46745;SDS011;32493;50.514;9.678;2022-12-29T00:20:15;3.80;;;1.75;;
46745;SDS011;32493;50.514;9.678;2022-12-29T00:22:36;3.00;;;1.67;;
46745;SDS011;32493;50.514;9.678;2022-12-29T00:24:54;2.20;;;1.63;;
46745;SDS011;32493;50.514;9.678;2022-12-29T00:27:12;4.68;;;1.75;;
46745;SDS011;32493;50.514;9.678;2022-12-29T00:31:47;3.17;;;1.50;;
46745;SDS011;32493;50.514;9.678;2022-12-29T00:34:09;3.20;;;1.45;;
46745;SDS011;32493;50.514;9.678;2022-12-29T00:36:28;3.60;;;1.05;;
46745;SDS011;32493;50.514;9.678;2022-12-29T00:38:42;3.78;;;1.60;;
46745;SDS011;32493;50.514;9.678;2022-12-29T00:41:06;2.63;;;1.42;;
46745;SDS011;32493;50.514;9.678;2022-12-29T00:43:24;2.88;;;1.40;;
46745;SDS011;32493;50.514;9.678;2022-12-29T00:45:42;2.40;;;1.20;;
46745;SDS011;32493;50.514;9.678;2022-12-29T00:47:47;3.15;;;1.52;;
46745;SDS011;32493;50.514;9.678;2022-12-29T00:49:52;6.97;;;1.30;;
46745;SDS011;32493;50.514;9.678;2022-12-29T00:51:56;2.83;;;0.82;;
46745;SDS011;32493;50.514;9.678;2022-12-29T00:54:07;7.38;;;1.55;;
46745;SDS011;32493;50.514;9.678;2022-12-29T00:56:12;1.20;;;0.98;;
46745;SDS011;32493;50.514;9.678;2022-12-29T00:58:18;2.50;;;1.23;;
46745;SDS011;32493;50.514;9.678;2022-12-29T01:00:23;2.70;;;1.23;;
46745;SDS011;32493;50.514;9.678;2022-12-29T01:02:30;5.72;;;1.10;;
46745;SDS011;32493;50.514;9.678;2022-12-29T01:04:37;1.80;;;1.00;;
46745;SDS011;32493;50.514;9.678;2022-12-29T01:06:42;2.25;;;1.30;;
46745;SDS011;32493;50.514;9.678;2022-12-29T01:08:50;3.05;;;1.38;;
46745;SDS011;32493;50.514;9.678;2022-12-29T01:11:19;5.88;;;1.20;;
46745;SDS011;32493;50.514;9.678;2022-12-29T01:13:21;3.10;;;1.20;;
46745;SDS011;32493;50.514;9.678;2022-12-29T01:15:27;2.13;;;1.27;;
46745;SDS011;32493;50.514;9.678;2022-12-29T01:17:32;3.85;;;1.80;;
46745;SDS011;32493;50.514;9.678;2022-12-29T01:19:37;5.13;;;1.23;;
46745;SDS011;32493;50.514;9.678;2022-12-29T01:21:42;4.53;;;1.50;;
46745;SDS011;32493;50.514;9.678;2022-12-29T01:23:48;3.55;;;1.10;;
46745;SDS011;32493;50.514;9.678;2022-12-29T01:25:54;3.90;;;1.23;;
46745;SDS011;32493;50.514;9.678;2022-12-29T01:28:02;7.85;;;1.40;;
46745;SDS011;32493;50.514;9.678;2022-12-29T01:30:09;3.83;;;1.38;;
46745;SDS011;32493;50.514;9.678;2022-12-29T01:32:15;3.40;;;1.50;;
46745;SDS011;32493;50.514;9.678;2022-12-29T01:34:20;2.80;;;1.20;;
46745;SDS011;32493;50.514;9.678;2022-12-29T01:36:25;2.97;;;1.08;;
46745;SDS011;32493;50.514;9.678;2022-12-29T01:38:32;2.17;;;1.15;;
46745;SDS011;32493;50.514;9.678;2022-12-29T01:40:45;3.20;;;1.63;;
46745;SDS011;32493;50.514;9.678;2022-12-29T01:42:52;2.08;;;1.30;;
46745;SDS011;32493;50.514;9.678;2022-12-29T01:44:59;4.28;;;1.70;;
46745;SDS011;32493;50.514;9.678;2022-12-29T01:47:06;3.03;;;1.42;;
46745;SDS011;32493;50.514;9.678;2022-12-29T01:49:13;1.73;;;1.05;;
46745;SDS011;32493;50.514;9.678;2022-12-29T01:51:23;5.82;;;2.22;;
46745;SDS011;32493;50.514;9.678;2022-12-29T01:53:30;2.10;;;1.40;;
46745;SDS011;32493;50.514;9.678;2022-12-29T01:55:38;14.45;;;1.48;;
46745;SDS011;32493;50.514;9.678;2022-12-29T01:57:48;2.78;;;1.30;;
46745;SDS011;32493;50.514;9.678;2022-12-29T02:00:00;3.42;;;1.48;;
46745;SDS011;32493;50.514;9.678;2022-12-29T02:02:15;4.15;;;1.55;;
46745;SDS011;32493;50.514;9.678;2022-12-29T02:04:21;2.85;;;1.65;;
46745;SDS011;32493;50.514;9.678;2022-12-29T02:06:29;1.90;;;1.42;;
46745;SDS011;32493;50.514;9.678;2022-12-29T02:08:39;0.93;;;0.73;;
46745;SDS011;32493;50.514;9.678;2022-12-29T02:10:45;5.05;;;1.70;;
46745;SDS011;32493;50.514;9.678;2022-12-29T02:12:51;3.50;;;1.27;;
46745;SDS011;32493;50.514;9.678;2022-12-29T02:15:00;3.55;;;1.48;;
46745;SDS011;32493;50.514;9.678;2022-12-29T02:17:09;3.10;;;1.90;;
46745;SDS011;32493;50.514;9.678;2022-12-29T02:19:38;2.22;;;1.50;;
46745;SDS011;32493;50.514;9.678;2022-12-29T02:22:27;4.03;;;1.42;;
46745;SDS011;32493;50.514;9.678;2022-12-29T02:24:49;2.70;;;1.65;;
46745;SDS011;32493;50.514;9.678;2022-12-29T02:27:29;3.47;;;1.30;;
46745;SDS011;32493;50.514;9.678;2022-12-29T02:30:05;3.50;;;1.40;;
46745;SDS011;32493;50.514;9.678;2022-12-29T02:32:25;3.75;;;1.35;;
46745;SDS011;32493;50.514;9.678;2022-12-29T02:34:39;3.63;;;1.20;;
46745;SDS011;32493;50.514;9.678;2022-12-29T02:36:54;2.70;;;1.10;;
46745;SDS011;32493;50.514;9.678;2022-12-29T02:39:10;2.15;;;1.60;;
46745;SDS011;32493;50.514;9.678;2022-12-29T02:41:27;1.08;;;0.90;;
46745;SDS011;32493;50.514;9.678;2022-12-29T02:43:38;1.58;;;0.93;;
46745;SDS011;32493;50.514;9.678;2022-12-29T02:45:51;3.45;;;1.20;;
46745;SDS011;32493;50.514;9.678;2022-12-29T02:48:04;1.45;;;0.93;;
46745;SDS011;32493;50.514;9.678;2022-12-29T02:50:19;2.53;;;0.88;;
46745;SDS011;32493;50.514;9.678;2022-12-29T02:52:30;3.58;;;1.20;;
46745;SDS011;32493;50.514;9.678;2022-12-29T02:54:40;2.95;;;1.40;;
46745;SDS011;32493;50.514;9.678;2022-12-29T02:56:44;2.22;;;0.98;;
46745;SDS011;32493;50.514;9.678;2022-12-29T02:58:50;3.08;;;1.10;;
46745;SDS011;32493;50.514;9.678;2022-12-29T03:01:01;2.55;;;1.30;;
46745;SDS011;32493;50.514;9.678;2022-12-29T03:03:29;2.67;;;1.13;;
46745;SDS011;32493;50.514;9.678;2022-12-29T03:05:53;3.33;;;1.10;;
46745;SDS011;32493;50.514;9.678;2022-12-29T03:08:23;1.27;;;0.77;;
46745;SDS011;32493;50.514;9.678;2022-12-29T03:10:38;1.85;;;1.30;;
46745;SDS011;32493;50.514;9.678;2022-12-29T03:12:54;3.35;;;1.02;;
46745;SDS011;32493;50.514;9.678;2022-12-29T03:15:20;2.80;;;1.10;;
46745;SDS011;32493;50.514;9.678;2022-12-29T03:17:46;2.17;;;1.20;;
46745;SDS011;32493;50.514;9.678;2022-12-29T03:20:04;1.90;;;1.23;;
46745;SDS011;32493;50.514;9.678;2022-12-29T03:22:15;2.22;;;1.05;;
46745;SDS011;32493;50.514;9.678;2022-12-29T03:24:41;2.50;;;1.15;;
46745;SDS011;32493;50.514;9.678;2022-12-29T03:26:52;1.75;;;1.02;;
46745;SDS011;32493;50.514;9.678;2022-12-29T03:29:05;2.60;;;0.95;;
46745;SDS011;32493;50.514;9.678;2022-12-29T03:31:12;1.92;;;0.90;;
46745;SDS011;32493;50.514;9.678;2022-12-29T03:33:20;1.45;;;1.17;;
46745;SDS011;32493;50.514;9.678;2022-12-29T03:35:31;4.35;;;1.08;;
46745;SDS011;32493;50.514;9.678;2022-12-29T03:37:44;2.85;;;0.85;;
46745;SDS011;32493;50.514;9.678;2022-12-29T03:39:57;2.30;;;1.20;;
46745;SDS011;32493;50.514;9.678;2022-12-29T03:42:04;2.38;;;1.05;;
46745;SDS011;32493;50.514;9.678;2022-12-29T03:44:21;1.73;;;0.93;;
46745;SDS011;32493;50.514;9.678;2022-12-29T03:46:38;2.88;;;0.80;;
46745;SDS011;32493;50.514;9.678;2022-12-29T03:48:43;1.65;;;0.90;;
46745;SDS011;32493;50.514;9.678;2022-12-29T03:50:50;1.75;;;1.25;;
46745;SDS011;32493;50.514;9.678;2022-12-29T03:52:57;1.38;;;0.90;;
46745;SDS011;32493;50.514;9.678;2022-12-29T03:55:02;4.65;;;1.10;;
46745;SDS011;32493;50.514;9.678;2022-12-29T03:57:08;2.50;;;0.90;;
46745;SDS011;32493;50.514;9.678;2022-12-29T03:59:36;2.78;;;1.08;;
46745;SDS011;32493;50.514;9.678;2022-12-29T04:01:41;1.63;;;0.93;;
46745;SDS011;32493;50.514;9.678;2022-12-29T04:03:47;1.42;;;0.90;;
46745;SDS011;32493;50.514;9.678;2022-12-29T04:05:55;2.08;;;1.00;;
46745;SDS011;32493;50.514;9.678;2022-12-29T04:08:01;1.92;;;0.90;;
46745;SDS011;32493;50.514;9.678;2022-12-29T04:10:07;2.30;;;1.00;;
46745;SDS011;32493;50.514;9.678;2022-12-29T04:12:13;2.35;;;0.70;;
46745;SDS011;32493;50.514;9.678;2022-12-29T04:14:18;3.95;;;1.23;;
46745;SDS011;32493;50.514;9.678;2022-12-29T04:16:23;2.30;;;1.00;;
46745;SDS011;32493;50.514;9.678;2022-12-29T04:18:28;1.48;;;0.98;;
46745;SDS011;32493;50.514;9.678;2022-12-29T04:20:34;2.17;;;0.80;;
46745;SDS011;32493;50.514;9.678;2022-12-29T04:22:59;1.98;;;0.73;;
46745;SDS011;32493;50.514;9.678;2022-12-29T04:25:06;3.13;;;1.00;;
46745;SDS011;32493;50.514;9.678;2022-12-29T04:27:12;2.30;;;0.80;;
46745;SDS011;32493;50.514;9.678;2022-12-29T04:29:42;4.20;;;1.30;;
46745;SDS011;32493;50.514;9.678;2022-12-29T04:32:09;2.78;;;1.10;;
46745;SDS011;32493;50.514;9.678;2022-12-29T04:34:19;3.03;;;0.90;;
46745;SDS011;32493;50.514;9.678;2022-12-29T04:36:24;2.00;;;0.88;;
46745;SDS011;32493;50.514;9.678;2022-12-29T04:38:33;2.03;;;1.08;;
46745;SDS011;32493;50.514;9.678;2022-12-29T04:40:39;1.67;;;0.80;;
46745;SDS011;32493;50.514;9.678;2022-12-29T04:42:49;2.92;;;1.02;;
46745;SDS011;32493;50.514;9.678;2022-12-29T04:44:56;1.35;;;0.70;;
46745;SDS011;32493;50.514;9.678;2022-12-29T04:47:24;2.33;;;1.10;;
46745;SDS011;32493;50.514;9.678;2022-12-29T04:49:52;2.03;;;0.80;;
46745;SDS011;32493;50.514;9.678;2022-12-29T04:52:12;2.22;;;1.02;;
46745;SDS011;32493;50.514;9.678;2022-12-29T04:54:22;3.95;;;1.02;;
46745;SDS011;32493;50.514;9.678;2022-12-29T04:56:33;2.05;;;0.90;;
46745;SDS011;32493;50.514;9.678;2022-12-29T04:58:38;0.80;;;0.77;;
46745;SDS011;32493;50.514;9.678;2022-12-29T05:00:43;1.77;;;1.08;;
46745;SDS011;32493;50.514;9.678;2022-12-29T05:02:49;3.03;;;0.80;;
46745;SDS011;32493;50.514;9.678;2022-12-29T05:04:55;1.05;;;0.80;;
46745;SDS011;32493;50.514;9.678;2022-12-29T05:07:02;3.10;;;1.00;;
46745;SDS011;32493;50.514;9.678;2022-12-29T05:09:07;1.73;;;0.70;;
46745;SDS011;32493;50.514;9.678;2022-12-29T05:11:15;2.55;;;0.90;;
46745;SDS011;32493;50.514;9.678;2022-12-29T05:13:23;2.85;;;1.05;;
46745;SDS011;32493;50.514;9.678;2022-12-29T05:15:28;2.30;;;0.70;;
46745;SDS011;32493;50.514;9.678;2022-12-29T05:17:34;5.43;;;0.90;;
46745;SDS011;32493;50.514;9.678;2022-12-29T05:19:41;2.95;;;1.08;;
46745;SDS011;32493;50.514;9.678;2022-12-29T05:21:46;1.75;;;1.00;;
46745;SDS011;32493;50.514;9.678;2022-12-29T05:23:59;2.72;;;0.80;;
46745;SDS011;32493;50.514;9.678;2022-12-29T05:26:04;3.50;;;1.30;;
46745;SDS011;32493;50.514;9.678;2022-12-29T05:28:33;1.83;;;1.00;;
46745;SDS011;32493;50.514;9.678;2022-12-29T05:30:47;4.85;;;0.98;;
46745;SDS011;32493;50.514;9.678;2022-12-29T05:32:53;2.47;;;1.17;;
46745;SDS011;32493;50.514;9.678;2022-12-29T05:34:58;3.58;;;1.27;;
46745;SDS011;32493;50.514;9.678;2022-12-29T05:37:06;2.85;;;0.90;;
46745;SDS011;32493;50.514;9.678;2022-12-29T05:39:14;2.83;;;1.15;;
46745;SDS011;32493;50.514;9.678;2022-12-29T05:41:24;4.32;;;1.20;;
46745;SDS011;32493;50.514;9.678;2022-12-29T05:43:58;2.58;;;0.98;;
46745;SDS011;32493;50.514;9.678;2022-12-29T05:46:07;2.97;;;0.70;;
46745;SDS011;32493;50.514;9.678;2022-12-29T05:48:23;2.80;;;1.13;;
46745;SDS011;32493;50.514;9.678;2022-12-29T05:50:46;1.50;;;1.23;;
46745;SDS011;32493;50.514;9.678;2022-12-29T05:52:58;2.45;;;1.10;;
46745;SDS011;32493;50.514;9.678;2022-12-29T05:55:04;1.52;;;0.88;;
46745;SDS011;32493;50.514;9.678;2022-12-29T05:57:12;1.38;;;0.65;;
46745;SDS011;32493;50.514;9.678;2022-12-29T05:59:25;2.53;;;1.00;;
46745;SDS011;32493;50.514;9.678;2022-12-29T06:01:31;4.88;;;1.05;;
46745;SDS011;32493;50.514;9.678;2022-12-29T06:03:36;4.80;;;1.00;;
46745;SDS011;32493;50.514;9.678;2022-12-29T06:05:48;1.15;;;0.98;;
46745;SDS011;32493;50.514;9.678;2022-12-29T06:07:53;3.30;;;1.10;;
46745;SDS011;32493;50.514;9.678;2022-12-29T06:09:59;3.42;;;1.50;;
46745;SDS011;32493;50.514;9.678;2022-12-29T06:12:07;1.92;;;0.80;;
46745;SDS011;32493;50.514;9.678;2022-12-29T06:14:16;1.40;;;0.90;;
46745;SDS011;32493;50.514;9.678;2022-12-29T06:16:24;2.53;;;1.02;;
46745;SDS011;32493;50.514;9.678;2022-12-29T06:18:33;1.25;;;0.70;;
46745;SDS011;32493;50.514;9.678;2022-12-29T06:20:38;3.72;;;0.98;;
46745;SDS011;32493;50.514;9.678;2022-12-29T06:22:43;4.68;;;0.95;;
46745;SDS011;32493;50.514;9.678;2022-12-29T06:24:48;1.20;;;0.70;;
46745;SDS011;32493;50.514;9.678;2022-12-29T06:26:53;3.05;;;1.30;;
46745;SDS011;32493;50.514;9.678;2022-12-29T06:28:58;1.05;;;0.90;;
46745;SDS011;32493;50.514;9.678;2022-12-29T06:31:04;1.20;;;0.75;;
46745;SDS011;32493;50.514;9.678;2022-12-29T06:33:11;1.52;;;0.90;;
46745;SDS011;32493;50.514;9.678;2022-12-29T06:35:18;2.67;;;0.70;;
46745;SDS011;32493;50.514;9.678;2022-12-29T06:37:25;1.52;;;0.82;;
46745;SDS011;32493;50.514;9.678;2022-12-29T06:39:30;0.85;;;0.55;;
46745;SDS011;32493;50.514;9.678;2022-12-29T06:41:39;4.45;;;1.60;;
46745;SDS011;32493;50.514;9.678;2022-12-29T06:43:56;1.65;;;1.00;;
46745;SDS011;32493;50.514;9.678;2022-12-29T06:46:20;1.77;;;0.55;;
46745;SDS011;32493;50.514;9.678;2022-12-29T06:48:28;2.30;;;1.00;;
46745;SDS011;32493;50.514;9.678;2022-12-29T06:50:34;1.95;;;0.90;;
46745;SDS011;32493;50.514;9.678;2022-12-29T06:52:40;1.58;;;0.90;;
46745;SDS011;32493;50.514;9.678;2022-12-29T06:54:45;2.17;;;0.90;;
46745;SDS011;32493;50.514;9.678;2022-12-29T06:56:50;1.40;;;0.80;;
46745;SDS011;32493;50.514;9.678;2022-12-29T06:58:55;1.95;;;0.85;;
46745;SDS011;32493;50.514;9.678;2022-12-29T07:01:01;2.08;;;1.00;;
46745;SDS011;32493;50.514;9.678;2022-12-29T07:03:07;1.23;;;0.90;;
46745;SDS011;32493;50.514;9.678;2022-12-29T07:05:15;3.25;;;0.93;;
46745;SDS011;32493;50.514;9.678;2022-12-29T07:07:21;3.65;;;1.10;;
46745;SDS011;32493;50.514;9.678;2022-12-29T07:09:26;1.88;;;1.02;;
46745;SDS011;32493;50.514;9.678;2022-12-29T07:11:31;1.70;;;0.80;;
46745;SDS011;32493;50.514;9.678;2022-12-29T07:13:36;3.00;;;0.98;;
46745;SDS011;32493;50.514;9.678;2022-12-29T07:15:42;2.10;;;1.13;;
46745;SDS011;32493;50.514;9.678;2022-12-29T07:17:47;1.55;;;0.88;;
46745;SDS011;32493;50.514;9.678;2022-12-29T07:19:53;1.73;;;0.70;;
46745;SDS011;32493;50.514;9.678;2022-12-29T07:22:01;2.17;;;1.30;;
46745;SDS011;32493;50.514;9.678;2022-12-29T07:24:07;3.40;;;0.93;;
46745;SDS011;32493;50.514;9.678;2022-12-29T07:26:13;3.45;;;1.08;;
46745;SDS011;32493;50.514;9.678;2022-12-29T07:28:20;2.83;;;0.97;;
46745;SDS011;32493;50.514;9.678;2022-12-29T07:30:25;1.98;;;1.05;;
46745;SDS011;32493;50.514;9.678;2022-12-29T07:32:31;1.67;;;0.98;;
46745;SDS011;32493;50.514;9.678;2022-12-29T07:34:37;1.83;;;0.63;;
46745;SDS011;32493;50.514;9.678;2022-12-29T07:36:42;1.67;;;1.05;;
46745;SDS011;32493;50.514;9.678;2022-12-29T07:38:51;3.28;;;1.00;;
46745;SDS011;32493;50.514;9.678;2022-12-29T07:40:57;3.45;;;1.33;;
46745;SDS011;32493;50.514;9.678;2022-12-29T07:43:02;3.05;;;1.20;;
46745;SDS011;32493;50.514;9.678;2022-12-29T07:45:16;2.55;;;1.20;;
46745;SDS011;32493;50.514;9.678;2022-12-29T07:47:22;4.05;;;1.00;;
46745;SDS011;32493;50.514;9.678;2022-12-29T07:49:27;2.78;;;0.93;;
46745;SDS011;32493;50.514;9.678;2022-12-29T07:51:32;2.05;;;1.38;;
46745;SDS011;32493;50.514;9.678;2022-12-29T07:53:37;1.33;;;0.70;;
46745;SDS011;32493;50.514;9.678;2022-12-29T07:55:45;3.45;;;1.15;;
46745;SDS011;32493;50.514;9.678;2022-12-29T07:57:52;4.07;;;1.30;;
46745;SDS011;32493;50.514;9.678;2022-12-29T07:59:57;2.40;;;1.20;;
46745;SDS011;32493;50.514;9.678;2022-12-29T08:02:12;2.53;;;0.90;;
46745;SDS011;32493;50.514;9.678;2022-12-29T08:04:17;3.33;;;1.10;;
46745;SDS011;32493;50.514;9.678;2022-12-29T08:06:24;3.13;;;1.08;;
46745;SDS011;32493;50.514;9.678;2022-12-29T08:08:31;2.13;;;0.67;;
46745;SDS011;32493;50.514;9.678;2022-12-29T08:10:36;2.65;;;1.13;;
46745;SDS011;32493;50.514;9.678;2022-12-29T08:12:43;2.28;;;1.20;;
46745;SDS011;32493;50.514;9.678;2022-12-29T08:16:54;3.95;;;1.40;;
46745;SDS011;32493;50.514;9.678;2022-12-29T08:18:59;1.88;;;1.20;;
46745;SDS011;32493;50.514;9.678;2022-12-29T08:21:05;1.92;;;1.00;;
46745;SDS011;32493;50.514;9.678;2022-12-29T08:23:10;2.33;;;1.13;;
46745;SDS011;32493;50.514;9.678;2022-12-29T08:25:15;2.60;;;1.15;;
46745;SDS011;32493;50.514;9.678;2022-12-29T08:27:21;4.53;;;1.38;;
46745;SDS011;32493;50.514;9.678;2022-12-29T08:29:28;3.50;;;1.05;;
46745;SDS011;32493;50.514;9.678;2022-12-29T08:31:34;3.17;;;1.40;;
46745;SDS011;32493;50.514;9.678;2022-12-29T08:33:39;4.53;;;1.05;;
46745;SDS011;32493;50.514;9.678;2022-12-29T08:35:44;2.90;;;1.35;;
46745;SDS011;32493;50.514;9.678;2022-12-29T08:37:49;2.13;;;1.30;;
46745;SDS011;32493;50.514;9.678;2022-12-29T08:39:54;2.33;;;0.98;;
46745;SDS011;32493;50.514;9.678;2022-12-29T08:42:00;4.95;;;2.22;;
46745;SDS011;32493;50.514;9.678;2022-12-29T08:44:05;2.22;;;1.20;;
46745;SDS011;32493;50.514;9.678;2022-12-29T08:46:14;3.15;;;0.93;;
46745;SDS011;32493;50.514;9.678;2022-12-29T08:48:19;3.65;;;1.42;;
46745;SDS011;32493;50.514;9.678;2022-12-29T08:50:25;4.25;;;1.35;;
46745;SDS011;32493;50.514;9.678;2022-12-29T08:52:30;6.38;;;1.70;;
46745;SDS011;32493;50.514;9.678;2022-12-29T08:54:35;3.75;;;1.60;;
46745;SDS011;32493;50.514;9.678;2022-12-29T08:56:40;2.00;;;1.10;;
46745;SDS011;32493;50.514;9.678;2022-12-29T08:58:48;2.90;;;1.35;;
46745;SDS011;32493;50.514;9.678;2022-12-29T09:00:54;4.30;;;1.38;;
46745;SDS011;32493;50.514;9.678;2022-12-29T09:03:03;2.00;;;0.95;;
46745;SDS011;32493;50.514;9.678;2022-12-29T09:05:11;5.20;;;1.15;;
46745;SDS011;32493;50.514;9.678;2022-12-29T09:07:17;3.42;;;1.48;;
46745;SDS011;32493;50.514;9.678;2022-12-29T09:09:22;2.70;;;1.42;;
46745;SDS011;32493;50.514;9.678;2022-12-29T09:11:27;3.55;;;1.52;;
46745;SDS011;32493;50.514;9.678;2022-12-29T09:13:32;5.53;;;2.35;;
46745;SDS011;32493;50.514;9.678;2022-12-29T09:15:38;5.30;;;1.70;;
46745;SDS011;32493;50.514;9.678;2022-12-29T09:17:43;3.45;;;1.30;;
46745;SDS011;32493;50.514;9.678;2022-12-29T09:19:49;4.40;;;1.20;;
46745;SDS011;32493;50.514;9.678;2022-12-29T09:21:54;3.88;;;1.45;;
46745;SDS011;32493;50.514;9.678;2022-12-29T09:23:59;3.70;;;1.60;;
46745;SDS011;32493;50.514;9.678;2022-12-29T09:26:04;3.95;;;1.25;;
46745;SDS011;32493;50.514;9.678;2022-12-29T09:28:09;3.90;;;1.80;;
46745;SDS011;32493;50.514;9.678;2022-12-29T09:30:14;2.45;;;1.30;;
46745;SDS011;32493;50.514;9.678;2022-12-29T09:32:19;4.68;;;1.70;;
46745;SDS011;32493;50.514;9.678;2022-12-29T09:34:28;2.17;;;1.65;;
46745;SDS011;32493;50.514;9.678;2022-12-29T09:36:36;2.33;;;1.42;;
46745;SDS011;32493;50.514;9.678;2022-12-29T09:40:49;5.70;;;1.80;;
46745;SDS011;32493;50.514;9.678;2022-12-29T09:43:05;3.13;;;1.10;;
46745;SDS011;32493;50.514;9.678;2022-12-29T09:45:27;4.28;;;1.30;;
46745;SDS011;32493;50.514;9.678;2022-12-29T09:47:40;2.35;;;1.30;;
46745;SDS011;32493;50.514;9.678;2022-12-29T09:49:48;1.38;;;0.80;;
46745;SDS011;32493;50.514;9.678;2022-12-29T09:52:02;2.60;;;1.70;;
46745;SDS011;32493;50.514;9.678;2022-12-29T09:54:18;4.30;;;1.00;;
46745;SDS011;32493;50.514;9.678;2022-12-29T09:56:42;3.92;;;1.30;;
46745;SDS011;32493;50.514;9.678;2022-12-29T09:58:50;4.43;;;1.55;;
46745;SDS011;32493;50.514;9.678;2022-12-29T10:01:01;2.10;;;1.20;;
46745;SDS011;32493;50.514;9.678;2022-12-29T10:03:13;1.92;;;1.20;;
46745;SDS011;32493;50.514;9.678;2022-12-29T10:05:27;3.55;;;1.70;;
46745;SDS011;32493;50.514;9.678;2022-12-29T10:07:44;4.45;;;1.70;;
46745;SDS011;32493;50.514;9.678;2022-12-29T10:09:59;2.03;;;0.90;;
46745;SDS011;32493;50.514;9.678;2022-12-29T10:12:21;2.95;;;1.20;;
46745;SDS011;32493;50.514;9.678;2022-12-29T10:14:41;5.07;;;1.50;;
46745;SDS011;32493;50.514;9.678;2022-12-29T10:17:05;2.88;;;1.80;;
46745;SDS011;32493;50.514;9.678;2022-12-29T10:19:33;3.22;;;1.80;;
46745;SDS011;32493;50.514;9.678;2022-12-29T10:21:57;2.55;;;1.63;;
46745;SDS011;32493;50.514;9.678;2022-12-29T10:24:16;4.28;;;1.77;;
46745;SDS011;32493;50.514;9.678;2022-12-29T10:26:25;4.00;;;1.70;;
46745;SDS011;32493;50.514;9.678;2022-12-29T10:28:37;3.00;;;1.35;;
46745;SDS011;32493;50.514;9.678;2022-12-29T10:30:47;8.90;;;1.50;;
46745;SDS011;32493;50.514;9.678;2022-12-29T10:32:55;6.05;;;1.60;;
46745;SDS011;32493;50.514;9.678;2022-12-29T10:35:05;6.93;;;1.70;;
46745;SDS011;32493;50.514;9.678;2022-12-29T10:37:21;9.27;;;1.80;;
46745;SDS011;32493;50.514;9.678;2022-12-29T10:39:40;4.35;;;1.70;;
46745;SDS011;32493;50.514;9.678;2022-12-29T10:41:51;3.90;;;1.48;;
46745;SDS011;32493;50.514;9.678;2022-12-29T10:44:06;2.38;;;1.13;;
46745;SDS011;32493;50.514;9.678;2022-12-29T10:46:17;3.05;;;1.30;;
46745;SDS011;32493;50.514;9.678;2022-12-29T10:48:27;2.78;;;1.17;;
46745;SDS011;32493;50.514;9.678;2022-12-29T10:50:35;3.80;;;1.23;;
46745;SDS011;32493;50.514;9.678;2022-12-29T10:52:44;1.23;;;1.00;;
46745;SDS011;32493;50.514;9.678;2022-12-29T10:54:54;1.95;;;1.05;;
46745;SDS011;32493;50.514;9.678;2022-12-29T10:57:04;2.95;;;1.38;;
46745;SDS011;32493;50.514;9.678;2022-12-29T10:59:16;4.78;;;1.10;;
46745;SDS011;32493;50.514;9.678;2022-12-29T11:01:28;2.03;;;1.00;;
46745;SDS011;32493;50.514;9.678;2022-12-29T11:03:48;2.50;;;1.03;;
46745;SDS011;32493;50.514;9.678;2022-12-29T11:06:03;1.77;;;0.82;;
46745;SDS011;32493;50.514;9.678;2022-12-29T11:08:16;2.15;;;1.00;;
46745;SDS011;32493;50.514;9.678;2022-12-29T11:10:35;2.08;;;1.02;;
46745;SDS011;32493;50.514;9.678;2022-12-29T11:12:43;1.92;;;0.70;;
46745;SDS011;32493;50.514;9.678;2022-12-29T11:15:02;2.22;;;1.05;;
46745;SDS011;32493;50.514;9.678;2022-12-29T11:17:17;0.90;;;0.70;;
46745;SDS011;32493;50.514;9.678;2022-12-29T11:19:23;2.92;;;0.98;;
46745;SDS011;32493;50.514;9.678;2022-12-29T11:21:39;1.88;;;1.02;;
46745;SDS011;32493;50.514;9.678;2022-12-29T11:23:46;2.00;;;0.80;;
46745;SDS011;32493;50.514;9.678;2022-12-29T11:28:37;1.45;;;0.50;;
46745;SDS011;32493;50.514;9.678;2022-12-29T11:30:44;1.23;;;0.40;;
46745;SDS011;32493;50.514;9.678;2022-12-29T11:33:02;1.45;;;0.60;;
46745;SDS011;32493;50.514;9.678;2022-12-29T11:35:17;2.55;;;0.65;;
46745;SDS011;32493;50.514;9.678;2022-12-29T11:37:40;1.05;;;0.50;;
46745;SDS011;32493;50.514;9.678;2022-12-29T11:39:48;2.05;;;0.50;;
46745;SDS011;32493;50.514;9.678;2022-12-29T11:42:02;3.15;;;0.60;;
46745;SDS011;32493;50.514;9.678;2022-12-29T11:44:11;0.65;;;0.60;;
46745;SDS011;32493;50.514;9.678;2022-12-29T11:46:18;2.03;;;0.40;;
46745;SDS011;32493;50.514;9.678;2022-12-29T11:48:29;0.57;;;0.35;;
46745;SDS011;32493;50.514;9.678;2022-12-29T11:50:39;1.00;;;0.60;;
46745;SDS011;32493;50.514;9.678;2022-12-29T11:54:53;1.75;;;0.40;;
46745;SDS011;32493;50.514;9.678;2022-12-29T11:57:11;1.08;;;0.60;;
46745;SDS011;32493;50.514;9.678;2022-12-29T12:01:44;2.97;;;0.60;;
46745;SDS011;32493;50.514;9.678;2022-12-29T12:03:52;1.05;;;0.52;;
46745;SDS011;32493;50.514;9.678;2022-12-29T12:06:07;2.15;;;0.50;;
46745;SDS011;32493;50.514;9.678;2022-12-29T12:08:23;1.60;;;0.68;;
46745;SDS011;32493;50.514;9.678;2022-12-29T12:10:39;1.98;;;0.45;;
46745;SDS011;32493;50.514;9.678;2022-12-29T12:12:53;1.17;;;0.32;;
46745;SDS011;32493;50.514;9.678;2022-12-29T12:15:20;1.33;;;0.60;;
46745;SDS011;32493;50.514;9.678;2022-12-29T12:17:32;1.25;;;0.60;;
46745;SDS011;32493;50.514;9.678;2022-12-29T12:19:45;2.15;;;0.65;;
46745;SDS011;32493;50.514;9.678;2022-12-29T12:21:59;0.90;;;0.50;;
46745;SDS011;32493;50.514;9.678;2022-12-29T12:24:20;2.95;;;0.85;;
46745;SDS011;32493;50.514;9.678;2022-12-29T12:26:39;2.10;;;0.60;;
46745;SDS011;32493;50.514;9.678;2022-12-29T12:29:04;2.40;;;0.60;;
46745;SDS011;32493;50.514;9.678;2022-12-29T12:31:17;1.58;;;0.50;;
46745;SDS011;32493;50.514;9.678;2022-12-29T12:33:46;2.70;;;0.50;;
46745;SDS011;32493;50.514;9.678;2022-12-29T12:36:04;3.30;;;0.60;;
46745;SDS011;32493;50.514;9.678;2022-12-29T12:38:27;2.22;;;0.50;;
46745;SDS011;32493;50.514;9.678;2022-12-29T12:40:50;1.10;;;0.50;;
46745;SDS011;32493;50.514;9.678;2022-12-29T12:43:22;1.55;;;0.63;;
46745;SDS011;32493;50.514;9.678;2022-12-29T12:45:47;2.45;;;0.60;;
46745;SDS011;32493;50.514;9.678;2022-12-29T12:48:03;4.35;;;0.70;;
46745;SDS011;32493;50.514;9.678;2022-12-29T12:50:38;2.05;;;0.57;;
46745;SDS011;32493;50.514;9.678;2022-12-29T12:53:02;1.73;;;0.60;;
46745;SDS011;32493;50.514;9.678;2022-12-29T12:55:42;2.60;;;0.57;;
46745;SDS011;32493;50.514;9.678;2022-12-29T12:58:07;2.70;;;0.68;;
46745;SDS011;32493;50.514;9.678;2022-12-29T13:00:23;1.20;;;0.38;;
46745;SDS011;32493;50.514;9.678;2022-12-29T13:02:40;4.43;;;0.60;;
46745;SDS011;32493;50.514;9.678;2022-12-29T13:05:07;1.95;;;0.40;;
46745;SDS011;32493;50.514;9.678;2022-12-29T13:07:31;2.05;;;0.70;;
46745;SDS011;32493;50.514;9.678;2022-12-29T13:09:55;2.33;;;0.70;;
46745;SDS011;32493;50.514;9.678;2022-12-29T13:12:23;2.28;;;0.82;;
46745;SDS011;32493;50.514;9.678;2022-12-29T13:14:42;2.00;;;0.60;;
46745;SDS011;32493;50.514;9.678;2022-12-29T13:17:03;1.92;;;0.60;;
46745;SDS011;32493;50.514;9.678;2022-12-29T13:19:20;1.27;;;0.50;;
46745;SDS011;32493;50.514;9.678;2022-12-29T13:21:37;1.73;;;0.70;;
46745;SDS011;32493;50.514;9.678;2022-12-29T13:24:06;3.70;;;0.80;;
46745;SDS011;32493;50.514;9.678;2022-12-29T13:26:20;4.22;;;1.52;;